createdAt,value
2022-12-18T00:01:38.330Z,24.10
2022-12-18T00:04:08.824Z,24.27
2022-12-18T00:06:36.653Z,25.43
2022-12-18T00:09:05.080Z,24.43
2022-12-18T00:11:34.787Z,24.10
2022-12-18T00:14:02.337Z,24.20
2022-12-18T00:16:34.388Z,24.47
2022-12-18T00:19:02.428Z,25.10
2022-12-18T00:21:31.052Z,22.67
2022-12-18T00:23:59.390Z,24.93
2022-12-18T00:26:33.010Z,24.40
2022-12-18T00:29:06.850Z,26.00
2022-12-18T00:31:34.252Z,24.37
2022-12-18T00:34:01.954Z,23.17
2022-12-18T00:36:33.016Z,22.53
2022-12-18T00:39:01.682Z,25.07
2022-12-18T00:41:48.206Z,24.60
2022-12-18T00:44:18.162Z,24.93
2022-12-18T00:46:47.428Z,23.83
2022-12-18T00:49:15.507Z,23.70
2022-12-18T00:51:42.259Z,24.63
2022-12-18T00:54:09.912Z,24.17
2022-12-18T00:56:45.743Z,25.07
2022-12-18T00:59:16.287Z,26.30
2022-12-18T01:01:43.773Z,24.87
2022-12-18T01:04:10.711Z,24.57
2022-12-18T01:06:37.831Z,23.70
2022-12-18T01:09:04.750Z,25.17
2022-12-18T01:11:31.907Z,23.03
2022-12-18T01:13:58.673Z,24.87
2022-12-18T01:16:25.435Z,24.50
2022-12-18T01:18:55.136Z,22.13
2022-12-18T01:21:23.509Z,22.67
2022-12-18T01:23:56.017Z,23.33
2022-12-18T01:26:25.298Z,24.47
2022-12-18T01:28:52.386Z,23.57
2022-12-18T01:31:34.020Z,24.47
2022-12-18T01:34:04.772Z,23.37
2022-12-18T01:36:35.341Z,24.30
2022-12-18T01:39:12.324Z,23.43
2022-12-18T01:42:01.394Z,24.83
2022-12-18T01:45:05.351Z,23.83
2022-12-18T01:48:02.068Z,23.43
2022-12-18T01:50:40.680Z,24.67
2022-12-18T01:53:24.065Z,23.77
2022-12-18T01:55:57.184Z,23.67
2022-12-18T01:58:57.697Z,22.90
2022-12-18T02:01:26.305Z,23.27
2022-12-18T02:03:53.854Z,25.23
2022-12-18T02:06:34.302Z,23.83
2022-12-18T02:09:15.794Z,21.87
2022-12-18T02:12:14.998Z,21.67
2022-12-18T02:14:53.185Z,23.80
2022-12-18T02:17:55.428Z,21.90
2022-12-18T02:20:43.773Z,23.47
2022-12-18T02:24:07.532Z,22.20
2022-12-18T02:26:44.690Z,22.37
2022-12-18T02:29:28.954Z,22.23
2022-12-18T02:32:00.935Z,22.53
2022-12-18T02:34:32.563Z,21.57
2022-12-18T02:37:04.850Z,23.23
2022-12-18T02:39:34.512Z,22.50
2022-12-18T02:42:08.770Z,23.43
2022-12-18T02:44:47.919Z,22.53
2022-12-18T02:47:23.620Z,23.23
2022-12-18T02:50:25.279Z,22.40
2022-12-18T02:53:37.264Z,21.90
2022-12-18T02:56:23.408Z,20.37
2022-12-18T02:58:53.548Z,20.53
2022-12-18T03:01:53.814Z,20.60
2022-12-18T03:04:31.303Z,21.10
2022-12-18T03:07:03.843Z,21.37
2022-12-18T03:09:40.795Z,20.13
2022-12-18T03:12:24.999Z,20.57
2022-12-18T03:15:17.274Z,19.77
2022-12-18T03:17:57.688Z,19.80
2022-12-18T03:20:30.152Z,20.87
2022-12-18T03:23:05.494Z,22.20
2022-12-18T03:25:35.617Z,20.80
2022-12-18T03:28:06.597Z,22.93
2022-12-18T03:30:38.319Z,21.63
2022-12-18T03:33:48.200Z,21.30
2022-12-18T03:36:16.156Z,21.60
2022-12-18T03:38:43.114Z,22.30
2022-12-18T03:41:42.028Z,22.50
2022-12-18T03:44:33.493Z,20.03
2022-12-18T03:47:04.532Z,22.13
2022-12-18T03:49:46.329Z,22.20
2022-12-18T03:52:34.110Z,21.00
2022-12-18T03:55:04.803Z,22.50
2022-12-18T03:57:33.898Z,20.60
2022-12-18T04:00:13.690Z,21.60
2022-12-18T04:03:05.866Z,23.43
2022-12-18T04:05:41.723Z,23.50
2022-12-18T04:08:08.928Z,22.77
2022-12-18T04:10:38.912Z,23.53
2022-12-18T04:13:05.738Z,23.50
2022-12-18T04:15:37.063Z,22.23
2022-12-18T04:18:05.834Z,23.37
2022-12-18T04:20:39.646Z,23.93
2022-12-18T04:23:06.339Z,23.27
2022-12-18T04:25:33.369Z,24.60
2022-12-18T04:28:09.643Z,23.17
2022-12-18T04:30:38.374Z,23.70
2022-12-18T04:33:11.295Z,23.70
2022-12-18T04:35:40.504Z,23.73
2022-12-18T04:38:11.792Z,24.07
2022-12-18T04:40:39.321Z,23.93
2022-12-18T04:43:14.637Z,23.87
2022-12-18T04:45:41.413Z,24.57
2022-12-18T04:48:08.062Z,26.13
2022-12-18T04:50:34.929Z,25.57
2022-12-18T04:53:01.920Z,25.73
2022-12-18T04:55:29.241Z,26.13
2022-12-18T04:57:56.086Z,24.90
2022-12-18T05:00:23.035Z,26.60
2022-12-18T05:02:49.819Z,26.37
2022-12-18T05:05:17.008Z,27.20
2022-12-18T05:07:43.792Z,24.77
2022-12-18T05:10:10.782Z,26.23
2022-12-18T05:12:58.909Z,27.33
2022-12-18T05:15:31.944Z,25.77
2022-12-18T05:17:59.646Z,26.40
2022-12-18T05:20:27.717Z,27.17
2022-12-18T05:22:55.550Z,27.13
2022-12-18T05:25:23.088Z,26.53
2022-12-18T05:27:50.298Z,26.47
2022-12-18T05:30:17.394Z,26.63
2022-12-18T05:32:44.197Z,26.03
2022-12-18T05:35:12.115Z,25.77
2022-12-18T05:37:42.889Z,27.13
2022-12-18T05:40:11.968Z,25.63
2022-12-18T05:42:39.031Z,26.40
2022-12-18T05:45:06.767Z,26.07
2022-12-18T05:47:33.464Z,27.43
2022-12-18T05:50:00.250Z,26.37
2022-12-18T05:52:26.930Z,29.10
2022-12-18T05:54:53.704Z,26.97
2022-12-18T05:57:20.919Z,27.20
2022-12-18T05:59:47.611Z,28.57
2022-12-18T06:02:14.376Z,27.57
2022-12-18T06:04:41.284Z,27.53
2022-12-18T06:07:08.152Z,28.47
2022-12-18T06:09:34.880Z,28.10
2022-12-18T06:12:01.537Z,25.43
2022-12-18T06:14:28.665Z,28.33
2022-12-18T06:16:55.359Z,27.27
2022-12-18T06:19:22.369Z,27.77
2022-12-18T06:21:50.120Z,28.43
2022-12-18T06:24:16.981Z,29.00
2022-12-18T06:26:43.711Z,26.13
2022-12-18T06:29:10.446Z,26.60
2022-12-18T06:31:37.223Z,29.63
2022-12-18T06:34:05.263Z,26.17
2022-12-18T06:36:32.448Z,26.77
2022-12-18T06:39:00.192Z,26.13
2022-12-18T06:41:27.139Z,27.50
2022-12-18T06:43:59.376Z,28.50
2022-12-18T06:46:26.434Z,27.37
2022-12-18T06:48:53.675Z,24.93
2022-12-18T06:51:24.728Z,27.20
2022-12-18T06:53:51.540Z,27.80
2022-12-18T06:56:18.430Z,26.50
2022-12-18T06:58:45.247Z,27.03
2022-12-18T07:01:13.630Z,27.37
2022-12-18T07:03:42.634Z,26.50
2022-12-18T07:06:20.041Z,27.33
2022-12-18T07:08:47.750Z,24.90
2022-12-18T07:11:15.237Z,24.70
2022-12-18T07:13:43.041Z,25.87
2022-12-18T07:16:20.775Z,27.40
2022-12-18T07:18:49.513Z,24.97
2022-12-18T07:21:19.912Z,26.30
2022-12-18T07:23:48.725Z,28.07
2022-12-18T07:26:19.605Z,25.07
2022-12-18T07:28:47.024Z,24.63
2022-12-18T07:31:17.668Z,24.43
2022-12-18T07:33:44.732Z,23.37
2022-12-18T07:36:11.975Z,23.20
2022-12-18T07:38:39.470Z,25.00
2022-12-18T07:41:12.328Z,25.13
2022-12-18T07:43:40.946Z,25.33
2022-12-18T07:46:11.057Z,24.27
2022-12-18T07:48:43.457Z,22.47
2022-12-18T07:51:13.392Z,24.37
2022-12-18T07:53:41.813Z,24.93
2022-12-18T07:56:27.320Z,24.40
2022-12-18T07:58:55.402Z,25.27
2022-12-18T08:01:22.303Z,24.23
2022-12-18T08:03:49.478Z,25.23
2022-12-18T08:06:19.414Z,22.80
2022-12-18T08:08:49.344Z,23.87
2022-12-18T08:11:16.852Z,24.33
2022-12-18T08:13:43.666Z,25.97
2022-12-18T08:16:10.714Z,24.67
2022-12-18T08:18:38.985Z,24.60
2022-12-18T08:21:11.129Z,24.80
2022-12-18T08:23:42.670Z,25.17
2022-12-18T08:26:12.012Z,23.97
2022-12-18T08:28:39.504Z,23.30
2022-12-18T08:31:07.102Z,23.67
2022-12-18T08:33:34.910Z,22.47
2022-12-18T08:36:02.644Z,22.73
2022-12-18T08:38:29.643Z,24.30
2022-12-18T08:41:26.118Z,24.33
2022-12-18T08:44:11.163Z,23.10
2022-12-18T08:46:41.624Z,23.77
2022-12-18T08:49:11.724Z,22.40
2022-12-18T08:51:39.374Z,21.30
2022-12-18T08:54:11.629Z,20.90
2022-12-18T08:56:38.449Z,22.70
2022-12-18T08:59:05.396Z,23.40
2022-12-18T09:01:32.361Z,20.97
2022-12-18T09:04:00.269Z,22.53
2022-12-18T09:06:27.487Z,21.60
2022-12-18T09:08:54.372Z,21.43
2022-12-18T09:11:26.178Z,23.53
2022-12-18T09:13:54.795Z,23.47
2022-12-18T09:16:26.142Z,21.87
2022-12-18T09:19:00.531Z,21.87
2022-12-18T09:21:31.440Z,22.67
2022-12-18T09:24:01.142Z,23.47
2022-12-18T09:26:28.281Z,22.30
2022-12-18T09:28:55.139Z,24.03
2022-12-18T09:31:24.898Z,24.17
2022-12-18T09:33:52.574Z,22.87
2022-12-18T09:36:20.381Z,23.37
2022-12-18T09:38:48.496Z,25.17
2022-12-18T09:41:42.570Z,25.60
2022-12-18T09:44:27.236Z,24.60
2022-12-18T09:47:21.128Z,25.97
2022-12-18T09:49:53.708Z,25.27
2022-12-18T09:52:49.068Z,24.73
2022-12-18T09:55:36.891Z,23.90
2022-12-18T09:58:29.772Z,23.63
2022-12-18T10:00:57.176Z,24.20
2022-12-18T10:03:24.262Z,21.43
2022-12-18T10:06:05.748Z,23.13
2022-12-18T10:08:41.969Z,22.33
2022-12-18T10:11:40.918Z,23.27
2022-12-18T10:14:46.383Z,22.63
2022-12-18T10:17:46.571Z,20.33
2022-12-18T10:20:46.201Z,23.03
2022-12-18T10:23:52.528Z,24.00
2022-12-18T10:26:19.483Z,25.93
2022-12-18T10:28:47.942Z,26.77
2022-12-18T10:31:24.580Z,26.07
2022-12-18T10:33:52.170Z,22.57
2022-12-18T10:36:18.844Z,22.07
2022-12-18T10:38:45.607Z,22.93
2022-12-18T10:41:18.400Z,25.77
2022-12-18T10:43:45.805Z,25.43
2022-12-18T10:46:12.431Z,26.87
2022-12-18T10:48:48.291Z,25.53
2022-12-18T10:51:25.676Z,25.60
2022-12-18T10:54:15.871Z,22.47
2022-12-18T10:56:43.696Z,24.70
2022-12-18T10:59:14.607Z,22.03
2022-12-18T11:01:57.490Z,21.77
2022-12-18T11:04:27.875Z,22.07
2022-12-18T11:07:01.376Z,21.93
2022-12-18T11:09:33.960Z,20.47
2022-12-18T11:12:23.865Z,19.73
2022-12-18T11:14:58.511Z,22.13
2022-12-18T11:17:35.856Z,21.17
2022-12-18T11:20:21.102Z,21.53
2022-12-18T11:23:03.909Z,23.13
2022-12-18T11:25:35.005Z,26.20
2022-12-18T11:28:25.098Z,21.30
2022-12-18T11:31:38.629Z,20.80
2022-12-18T11:34:29.205Z,21.23
2022-12-18T11:37:00.642Z,19.80
2022-12-18T11:39:53.727Z,18.27
2022-12-18T11:42:43.324Z,17.73
2022-12-18T11:45:13.814Z,18.37
2022-12-18T11:48:10.532Z,20.50
2022-12-18T11:50:37.502Z,17.47
2022-12-18T11:53:06.500Z,19.20
2022-12-18T11:55:56.842Z,18.40
2022-12-18T11:58:59.401Z,19.57
2022-12-18T12:01:49.762Z,19.17
2022-12-18T12:04:46.984Z,19.20
2022-12-18T12:07:36.122Z,19.83
2022-12-18T12:10:18.929Z,19.43
2022-12-18T12:20:29.758Z,18.33
2022-12-18T12:23:37.907Z,19.90
2022-12-18T12:26:19.976Z,21.33
2022-12-18T12:29:19.412Z,21.03
2022-12-18T12:32:50.894Z,19.40
2022-12-18T12:36:16.954Z,17.53
2022-12-18T12:38:55.771Z,18.57
2022-12-18T12:41:53.117Z,17.87
2022-12-18T12:44:32.974Z,19.20
2022-12-18T12:47:14.965Z,18.97
2022-12-18T12:49:50.925Z,21.43
2022-12-18T12:53:07.975Z,21.53
2022-12-18T12:58:55.639Z,19.73
2022-12-18T13:02:06.115Z,20.33
2022-12-18T13:05:28.182Z,19.53
2022-12-18T13:08:18.872Z,18.60
2022-12-18T13:10:51.065Z,20.60
2022-12-18T13:13:26.606Z,19.57
2022-12-18T13:16:14.729Z,20.60
2022-12-18T13:19:00.773Z,19.57
2022-12-18T13:22:49.450Z,17.50
2022-12-18T13:25:45.090Z,19.47
2022-12-18T13:28:56.817Z,20.23
2022-12-18T13:31:50.635Z,21.37
2022-12-18T13:34:29.504Z,19.83
2022-12-18T13:37:59.308Z,20.60
2022-12-18T13:40:52.950Z,18.53
2022-12-18T13:46:22.375Z,20.43
2022-12-18T13:49:07.515Z,18.73
2022-12-18T13:51:36.437Z,19.47
2022-12-18T13:54:29.778Z,20.80
2022-12-18T13:56:57.485Z,20.57
2022-12-18T13:59:36.755Z,20.77
2022-12-18T14:02:28.154Z,20.77
2022-12-18T14:04:56.423Z,19.10
2022-12-18T14:07:27.095Z,21.13
2022-12-18T14:12:57.847Z,20.13
2022-12-18T14:15:27.884Z,19.83
2022-12-18T14:17:59.770Z,20.87
2022-12-18T14:20:32.583Z,20.70
2022-12-18T14:23:01.176Z,20.73
2022-12-18T14:25:31.484Z,18.87
2022-12-18T14:28:08.387Z,20.60
2022-12-18T14:30:43.901Z,19.63
2022-12-18T14:33:17.094Z,20.93
2022-12-18T14:36:03.236Z,19.50
2022-12-18T14:38:35.529Z,18.80
2022-12-18T14:41:05.389Z,21.77
2022-12-18T14:43:39.295Z,21.90
2022-12-18T14:46:33.954Z,22.67
2022-12-18T14:49:35.564Z,21.80
2022-12-18T14:52:07.251Z,22.33
2022-12-18T14:54:38.244Z,21.07
2022-12-18T14:57:26.260Z,21.00
2022-12-18T14:59:53.529Z,20.80
2022-12-18T15:02:27.498Z,21.20
2022-12-18T15:05:26.495Z,21.87
2022-12-18T15:07:56.592Z,19.57
2022-12-18T15:10:24.597Z,22.00
2022-12-18T15:12:57.208Z,20.83
2022-12-18T15:15:40.333Z,18.17
2022-12-18T15:18:11.456Z,20.23
2022-12-18T15:20:57.295Z,18.83
2022-12-18T15:23:25.324Z,20.50
2022-12-18T15:26:11.344Z,21.00
2022-12-18T15:29:00.855Z,19.60
2022-12-18T15:31:35.768Z,21.10
2022-12-18T15:34:13.341Z,20.27
2022-12-18T15:36:40.795Z,19.47
2022-12-18T15:39:07.605Z,22.47
2022-12-18T15:41:36.503Z,22.30
2022-12-18T15:44:18.082Z,21.20
2022-12-18T15:46:44.939Z,19.93
2022-12-18T15:49:11.633Z,21.17
2022-12-18T15:51:39.680Z,21.73
2022-12-18T15:54:14.345Z,18.63
2022-12-18T15:56:59.977Z,19.93
2022-12-18T15:59:27.387Z,19.60
2022-12-18T16:01:54.270Z,19.67
2022-12-18T16:04:23.197Z,21.43
2022-12-18T16:07:13.706Z,19.80
2022-12-18T16:09:37.882Z,19.33
2022-12-18T16:12:05.507Z,19.37
2022-12-18T16:14:33.238Z,19.03
2022-12-18T16:17:04.432Z,20.33
2022-12-18T16:19:31.391Z,20.07
2022-12-18T16:21:59.737Z,20.27
2022-12-18T16:24:30.639Z,21.10
2022-12-18T16:27:00.396Z,18.93
2022-12-18T16:29:29.046Z,19.83
2022-12-18T16:32:00.836Z,20.80
2022-12-18T16:34:35.993Z,20.90
2022-12-18T16:37:06.694Z,20.67
2022-12-18T16:39:38.225Z,21.13
2022-12-18T16:42:20.314Z,20.00
2022-12-18T16:44:49.142Z,20.63
2022-12-18T16:47:16.577Z,20.33
2022-12-18T16:49:45.869Z,22.00
2022-12-18T16:52:13.763Z,22.13
2022-12-18T16:54:40.427Z,21.43
2022-12-18T16:57:07.143Z,23.57
2022-12-18T16:59:35.335Z,22.90
2022-12-18T17:02:03.061Z,23.00
2022-12-18T17:04:29.927Z,23.00
2022-12-18T17:06:56.970Z,23.47
2022-12-18T17:09:26.551Z,20.53
2022-12-18T17:11:54.637Z,21.97
2022-12-18T17:14:24.674Z,22.50
2022-12-18T17:17:19.234Z,22.97
2022-12-18T17:19:41.554Z,22.30
2022-12-18T17:22:08.533Z,24.13
2022-12-18T17:24:35.846Z,21.80
2022-12-18T17:27:04.417Z,22.57
2022-12-18T17:29:31.178Z,22.70
2022-12-18T17:31:59.712Z,22.03
2022-12-18T17:34:27.939Z,21.47
2022-12-18T17:36:54.958Z,19.17
2022-12-18T17:39:21.865Z,21.07
2022-12-18T17:41:50.306Z,21.70
2022-12-18T17:44:18.457Z,25.88
2022-12-18T17:46:46.192Z,22.73
2022-12-18T17:49:14.160Z,21.90
2022-12-18T17:51:43.005Z,21.60
2022-12-18T17:54:11.030Z,21.33
2022-12-18T17:56:39.122Z,20.73
2022-12-18T17:59:07.065Z,21.20
2022-12-18T18:01:34.074Z,22.70
2022-12-18T18:04:01.990Z,22.87
2022-12-18T18:06:28.919Z,20.33
2022-12-18T18:08:57.454Z,20.80
2022-12-18T18:11:43.914Z,20.77
2022-12-18T18:14:19.561Z,22.27
2022-12-18T18:16:49.340Z,21.00
2022-12-18T18:19:20.943Z,22.33
2022-12-18T18:21:50.123Z,22.23
2022-12-18T18:24:20.202Z,21.63
2022-12-18T18:26:47.075Z,20.80
2022-12-18T18:29:23.765Z,21.30
2022-12-18T18:31:53.166Z,22.67
2022-12-18T18:34:29.529Z,21.73
2022-12-18T18:36:59.660Z,20.80
2022-12-18T18:39:27.151Z,22.40
2022-12-18T18:41:54.132Z,21.47
2022-12-18T18:44:25.611Z,19.33
2022-12-18T18:46:57.114Z,21.77
2022-12-18T18:49:27.412Z,22.73
2022-12-18T18:51:57.418Z,21.00
2022-12-18T18:54:25.574Z,21.57
2022-12-18T18:59:39.133Z,19.80
2022-12-18T19:02:07.396Z,20.17
2022-12-18T19:04:34.523Z,20.03
2022-12-18T19:07:01.597Z,19.33
2022-12-18T19:09:28.741Z,21.37
2022-12-18T19:12:14.375Z,20.50
2022-12-18T19:14:44.053Z,19.33
2022-12-18T19:17:10.813Z,19.77
2022-12-18T19:19:37.707Z,19.97
2022-12-18T19:22:06.219Z,18.50
2022-12-18T19:24:33.067Z,18.33
2022-12-18T19:27:00.783Z,18.90
2022-12-18T19:29:27.695Z,19.17
2022-12-18T19:31:54.607Z,19.10
2022-12-18T19:34:21.517Z,19.90
2022-12-18T19:36:48.522Z,18.20
2022-12-18T19:39:19.184Z,20.00
2022-12-18T19:41:46.864Z,19.30
2022-12-18T19:44:16.223Z,19.20
2022-12-18T19:46:46.007Z,19.70
2022-12-18T19:49:18.093Z,18.23
2022-12-18T19:51:45.815Z,18.50
2022-12-18T19:54:16.980Z,18.57
2022-12-18T19:56:45.713Z,19.43
2022-12-18T19:59:13.377Z,17.90
2022-12-18T20:01:41.095Z,20.80
2022-12-18T20:04:08.080Z,19.50
2022-12-18T20:06:49.759Z,18.00
2022-12-18T20:09:17.887Z,18.90
2022-12-18T20:11:46.431Z,17.23
2022-12-18T20:14:16.860Z,19.47
2022-12-18T20:16:49.052Z,18.87
2022-12-18T20:19:15.908Z,18.77
2022-12-18T20:21:43.096Z,19.80
2022-12-18T20:24:10.298Z,17.87
2022-12-18T20:26:37.992Z,19.67
2022-12-18T20:29:05.152Z,19.60
2022-12-18T20:31:32.445Z,17.37
2022-12-18T20:34:01.526Z,16.97
2022-12-18T20:36:29.601Z,17.70
2022-12-18T20:39:00.449Z,17.67
2022-12-18T20:41:31.988Z,18.53
2022-12-18T20:44:22.910Z,18.53
2022-12-18T20:46:57.729Z,17.87
2022-12-18T20:49:26.419Z,19.80
2022-12-18T20:51:56.209Z,19.40
2022-12-18T20:54:25.746Z,17.27
2022-12-18T20:56:52.542Z,18.30
2022-12-18T20:59:19.666Z,18.10
2022-12-18T21:01:48.331Z,18.57
2022-12-18T21:04:18.015Z,17.83
2022-12-18T21:06:49.408Z,18.93
2022-12-18T21:09:20.349Z,18.03
2022-12-18T21:12:05.803Z,18.33
2022-12-18T21:14:32.629Z,17.63
2022-12-18T21:17:02.743Z,18.70
2022-12-18T21:19:29.841Z,19.33
2022-12-18T21:21:57.595Z,20.70
2022-12-18T21:24:25.064Z,22.87
2022-12-18T21:26:52.553Z,21.27
2022-12-18T21:29:23.356Z,19.77
2022-12-18T21:31:51.773Z,18.40
2022-12-18T21:34:27.713Z,17.70
2022-12-18T21:36:57.204Z,23.87
2022-12-18T21:39:25.366Z,25.33
2022-12-18T21:42:10.971Z,22.47
2022-12-18T21:44:40.167Z,18.77
2022-12-18T21:47:22.216Z,20.00
2022-12-18T21:49:52.498Z,21.17
2022-12-18T21:52:22.465Z,20.83
2022-12-18T21:55:01.861Z,21.17
2022-12-18T21:57:31.609Z,23.73
2022-12-18T21:59:59.408Z,20.17
2022-12-18T22:02:26.679Z,23.57
2022-12-18T22:04:53.508Z,28.27
2022-12-18T22:07:20.658Z,21.03
2022-12-18T22:09:49.459Z,21.97
2022-12-18T22:12:35.161Z,19.73
2022-12-18T22:15:04.862Z,20.03
2022-12-18T22:17:31.845Z,19.27
2022-12-18T22:19:58.680Z,18.63
2022-12-18T22:22:25.506Z,18.40
2022-12-18T22:24:52.296Z,18.57
2022-12-18T22:27:19.011Z,19.23
2022-12-18T22:30:03.999Z,19.03
2022-12-18T22:32:35.505Z,19.73
2022-12-18T22:35:12.940Z,19.43
2022-12-18T22:37:42.308Z,18.97
2022-12-18T22:40:23.947Z,18.43
2022-12-18T22:42:52.999Z,18.67
2022-12-18T22:45:20.323Z,19.60
2022-12-18T22:47:47.105Z,19.43
2022-12-18T22:50:14.507Z,20.03
2022-12-18T22:52:41.304Z,19.53
2022-12-18T22:55:08.561Z,19.73
2022-12-18T22:57:35.354Z,19.40
2022-12-18T23:00:05.644Z,19.47
2022-12-18T23:02:32.551Z,19.60
2022-12-18T23:04:59.377Z,18.43
2022-12-18T23:07:26.130Z,19.93
2022-12-18T23:09:57.385Z,19.03
2022-12-18T23:12:28.046Z,19.30
2022-12-18T23:14:54.794Z,19.07
2022-12-18T23:17:21.696Z,19.87
2022-12-18T23:19:49.419Z,20.80
2022-12-18T23:22:17.723Z,19.73
2022-12-18T23:24:44.516Z,19.87
2022-12-18T23:27:11.773Z,19.37
2022-12-18T23:29:40.110Z,18.80
2022-12-18T23:32:07.178Z,18.13
2022-12-18T23:34:33.886Z,17.90
2022-12-18T23:37:01.051Z,19.07
2022-12-18T23:39:29.656Z,17.53
2022-12-18T23:42:00.557Z,19.43
2022-12-18T23:44:28.060Z,17.80
2022-12-18T23:46:55.470Z,17.97
2022-12-18T23:49:22.863Z,18.37
2022-12-18T23:51:50.115Z,17.13
2022-12-18T23:54:16.836Z,18.30
2022-12-18T23:56:43.730Z,18.07
2022-12-18T23:59:10.548Z,17.97
